Wembley, Canada
Current Conditions -  °F | °C
As of 8:00 AM on Tuesday 21 Oct 2014 (Local Time) from CYQU Reporting Station
Scattered Clouds Scattered Clouds  
Wind Chill: 30°   Ceiling: Unl
Heat Index: 30°   Visibility: 25mi
Dew Point: 30°   Wind: 2mph
Humidity: 100%   Direction: 320°NW
Pressure: 29.59"   Gusts: NA
Location:  55.15°N, 119.15°W
Report Text: CYQU 211400Z 32002KT 25SM FEW120 SCT200 M01/M01 A2959 RMK AC1CI2 SLP042
Loading
Personal Weather Stations






























Interactive Weather Map
Tropical Storm Tracking
New forecast layout! Learn more

10-Day Weather Forecast

Advertisements
Track Severe Weather on mobile